createdAt,value
2017-09-04T00:02:16.406Z,14.70
2017-09-04T00:04:43.910Z,14.60
2017-09-04T00:07:11.359Z,14.50
2017-09-04T00:09:38.815Z,14.60
2017-09-04T00:12:06.258Z,14.50
2017-09-04T00:14:33.882Z,14.50
2017-09-04T00:17:01.339Z,14.60
2017-09-04T00:19:28.787Z,14.70
2017-09-04T00:21:56.255Z,14.50
2017-09-04T00:24:23.702Z,14.20
2017-09-04T00:26:51.150Z,14.10
2017-09-04T00:29:18.623Z,14.10
2017-09-04T00:31:46.073Z,14.20
2017-09-04T00:34:13.518Z,14.10
2017-09-04T00:36:41.083Z,14.00
2017-09-04T00:39:08.531Z,14.20
2017-09-04T00:41:35.983Z,14.10
2017-09-04T00:44:03.474Z,13.90
2017-09-04T00:46:30.928Z,13.80
2017-09-04T00:48:58.383Z,13.80
2017-09-04T00:51:25.862Z,13.80
2017-09-04T00:53:53.311Z,13.90
2017-09-04T00:56:20.758Z,13.90
2017-09-04T00:58:48.506Z,14.00
2017-09-04T01:01:15.951Z,14.00
2017-09-04T01:03:43.403Z,14.00
2017-09-04T01:06:10.964Z,14.00
2017-09-04T01:08:38.410Z,13.90
2017-09-04T01:11:05.862Z,13.90
2017-09-04T01:13:33.451Z,14.00
2017-09-04T01:16:00.899Z,13.90
2017-09-04T01:18:28.353Z,13.90
2017-09-04T01:20:56.119Z,13.90
2017-09-04T01:23:23.563Z,13.70
2017-09-04T01:25:51.014Z,13.80
2017-09-04T01:28:18.519Z,13.80
2017-09-04T01:30:45.946Z,13.90
2017-09-04T01:33:13.402Z,14.00
2017-09-04T01:35:40.874Z,13.90
2017-09-04T01:38:08.327Z,13.80
2017-09-04T01:40:35.771Z,13.80
2017-09-04T01:43:03.268Z,13.70
2017-09-04T01:45:30.711Z,13.70
2017-09-04T01:47:58.154Z,13.60
2017-09-04T01:50:25.638Z,13.50
2017-09-04T01:52:53.095Z,13.60
2017-09-04T01:55:20.551Z,13.50
2017-09-04T01:57:48.022Z,13.30
2017-09-04T02:00:15.482Z,13.20
2017-09-04T02:02:42.930Z,13.20
2017-09-04T02:05:10.411Z,13.30
2017-09-04T02:07:37.857Z,13.20
2017-09-04T02:10:05.319Z,13.30
2017-09-04T02:12:32.794Z,13.20
2017-09-04T02:15:00.242Z,13.10
2017-09-04T02:17:27.694Z,13.30
2017-09-04T02:19:55.170Z,13.50
2017-09-04T02:22:22.628Z,13.30
2017-09-04T02:24:50.078Z,13.10
2017-09-04T02:27:17.538Z,13.00
2017-09-04T02:29:45.378Z,12.80
2017-09-04T02:32:12.822Z,12.80
2017-09-04T02:34:40.302Z,13.00
2017-09-04T02:37:07.753Z,12.90
2017-09-04T02:39:35.200Z,12.90
2017-09-04T02:42:02.650Z,12.80
2017-09-04T02:44:30.101Z,12.90
2017-09-04T02:46:57.562Z,13.00
2017-09-04T02:49:25.015Z,13.00
2017-09-04T02:51:52.458Z,12.80
2017-09-04T02:54:19.936Z,12.70
2017-09-04T02:56:47.382Z,12.70
2017-09-04T02:59:14.841Z,12.70
2017-09-04T03:01:42.559Z,12.70
2017-09-04T03:04:10.009Z,12.70
2017-09-04T03:06:37.453Z,12.60
2017-09-04T03:09:04.919Z,12.50
2017-09-04T03:11:32.361Z,12.60
2017-09-04T03:13:59.812Z,12.70
2017-09-04T03:16:27.430Z,12.80
2017-09-04T03:18:54.874Z,12.90
2017-09-04T03:21:22.318Z,12.90
2017-09-04T03:23:49.814Z,12.80
2017-09-04T03:26:17.273Z,12.70
2017-09-04T03:28:44.722Z,12.70
2017-09-04T03:31:12.182Z,12.70
2017-09-04T03:33:39.630Z,12.70
2017-09-04T03:36:07.081Z,12.70
2017-09-04T03:38:34.933Z,12.60
2017-09-04T03:41:02.398Z,12.70
2017-09-04T03:43:29.861Z,12.70
2017-09-04T03:45:57.329Z,12.60
2017-09-04T03:48:24.788Z,12.50
2017-09-04T03:50:52.242Z,12.50
2017-09-04T03:53:19.727Z,12.60
2017-09-04T03:55:47.183Z,12.70
2017-09-04T03:58:14.634Z,12.70
2017-09-04T04:00:42.090Z,12.70
2017-09-04T04:03:09.546Z,12.80
2017-09-04T04:05:37.234Z,12.80
2017-09-04T04:08:04.686Z,12.80
2017-09-04T04:10:32.171Z,12.70
2017-09-04T04:12:59.642Z,12.50
2017-09-04T04:15:27.109Z,12.40
2017-09-04T04:17:54.547Z,12.20
2017-09-04T04:20:22.287Z,12.20
2017-09-04T04:22:49.742Z,12.30
2017-09-04T04:25:17.202Z,12.40
2017-09-04T04:27:44.683Z,12.30
2017-09-04T04:30:12.133Z,12.30
2017-09-04T04:32:39.577Z,12.20
2017-09-04T04:35:07.040Z,12.20
2017-09-04T04:37:34.481Z,12.20
2017-09-04T04:40:01.941Z,12.20
2017-09-04T04:42:29.406Z,12.30
2017-09-04T04:44:56.862Z,12.20
2017-09-04T04:47:24.309Z,12.30
2017-09-04T04:49:51.777Z,12.30
2017-09-04T04:52:19.229Z,12.50
2017-09-04T04:54:46.681Z,12.60
2017-09-04T04:57:14.271Z,12.70
2017-09-04T04:59:41.725Z,12.80
2017-09-04T05:02:09.182Z,12.80
2017-09-04T05:04:36.662Z,12.80
2017-09-04T05:07:04.110Z,12.80
2017-09-04T05:09:31.572Z,12.70
2017-09-04T05:11:59.017Z,12.70
2017-09-04T05:14:26.471Z,12.80
2017-09-04T05:16:53.953Z,12.70
2017-09-04T05:19:21.408Z,12.70
2017-09-04T05:21:48.866Z,12.80
2017-09-04T05:24:16.618Z,12.80
2017-09-04T05:26:44.066Z,12.80
2017-09-04T05:29:11.518Z,13.00
2017-09-04T05:31:39.021Z,12.90
2017-09-04T05:34:06.487Z,12.90
2017-09-04T05:36:33.945Z,13.00
2017-09-04T05:39:01.403Z,13.00
2017-09-04T05:41:28.849Z,13.10
2017-09-04T05:43:56.294Z,13.10
2017-09-04T05:46:23.751Z,13.20
2017-09-04T05:48:51.193Z,13.20
2017-09-04T05:51:18.686Z,13.30
2017-09-04T05:53:46.134Z,13.40
2017-09-04T05:56:13.581Z,13.30
2017-09-04T05:58:41.062Z,13.30
2017-09-04T06:01:08.517Z,13.60
2017-09-04T06:03:35.970Z,12.90
2017-09-04T06:06:03.662Z,12.60
2017-09-04T06:08:31.126Z,12.80
2017-09-04T06:10:58.588Z,12.80
2017-09-04T06:13:26.066Z,13.20
2017-09-04T06:15:53.521Z,13.70
2017-09-04T06:18:20.969Z,13.90
2017-09-04T06:20:48.421Z,14.10
2017-09-04T06:23:16.011Z,14.00
2017-09-04T06:25:43.471Z,14.10
2017-09-04T06:28:10.931Z,13.70
2017-09-04T06:30:38.515Z,13.20
2017-09-04T06:33:05.987Z,13.20
2017-09-04T06:35:33.448Z,13.20
2017-09-04T06:38:01.089Z,13.50
2017-09-04T06:40:28.540Z,13.80
2017-09-04T06:42:55.997Z,14.20
2017-09-04T06:45:23.482Z,14.70
2017-09-04T06:47:50.929Z,15.00
2017-09-04T06:50:18.384Z,15.10
2017-09-04T06:52:45.837Z,15.40
2017-09-04T06:55:13.298Z,15.60
2017-09-04T06:57:40.785Z,15.40
2017-09-04T07:00:08.233Z,15.30
2017-09-04T07:02:35.686Z,15.40
2017-09-04T07:05:03.190Z,15.40
2017-09-04T07:07:30.645Z,15.10
2017-09-04T07:09:58.103Z,15.30
2017-09-04T07:12:25.679Z,15.80
2017-09-04T07:14:53.126Z,16.30
2017-09-04T07:17:20.587Z,16.60
2017-09-04T07:19:48.437Z,16.70
2017-09-04T07:22:15.898Z,16.90
2017-09-04T07:24:43.369Z,17.10
2017-09-04T07:27:10.810Z,17.30
2017-09-04T07:29:38.266Z,17.40
2017-09-04T07:32:05.714Z,17.40
2017-09-04T07:34:33.177Z,17.50
2017-09-04T07:37:00.629Z,17.90
2017-09-04T07:39:28.090Z,17.90
2017-09-04T07:41:55.543Z,17.90
2017-09-04T07:44:22.997Z,18.00
2017-09-04T07:46:50.578Z,18.00
2017-09-04T07:49:18.030Z,18.00
2017-09-04T07:51:45.502Z,18.00
2017-09-04T07:54:12.998Z,18.30
2017-09-04T07:56:40.451Z,18.50
2017-09-04T07:59:07.901Z,18.70
2017-09-04T08:01:35.389Z,18.80
2017-09-04T08:04:02.843Z,19.00
2017-09-04T08:06:30.302Z,18.90
2017-09-04T08:08:57.954Z,18.90
2017-09-04T08:11:25.398Z,19.00
2017-09-04T08:13:52.849Z,19.10
2017-09-04T08:16:20.306Z,19.20
2017-09-04T08:18:47.762Z,18.90
2017-09-04T08:21:15.246Z,18.90
2017-09-04T08:23:42.686Z,19.00
2017-09-04T08:26:10.138Z,18.90
2017-09-04T08:28:37.898Z,19.20
2017-09-04T08:31:05.349Z,19.30
2017-09-04T08:33:32.793Z,19.30
2017-09-04T08:36:00.246Z,19.60
2017-09-04T08:38:27.698Z,20.20
2017-09-04T08:40:55.349Z,20.30
2017-09-04T08:43:22.799Z,20.40
2017-09-04T08:45:50.248Z,20.40
2017-09-04T08:48:17.691Z,20.00
2017-09-04T08:50:45.152Z,20.00
2017-09-04T08:53:12.602Z,20.10
2017-09-04T08:55:40.054Z,20.50
2017-09-04T08:58:07.620Z,20.60
2017-09-04T09:00:35.062Z,20.70
2017-09-04T09:03:02.509Z,21.20
2017-09-04T09:05:29.993Z,21.20
2017-09-04T09:07:57.430Z,21.10
2017-09-04T09:10:24.881Z,20.90
2017-09-04T09:12:52.326Z,20.70
2017-09-04T09:15:19.786Z,21.00
2017-09-04T09:17:47.506Z,21.30
2017-09-04T09:20:14.962Z,21.40
2017-09-04T09:22:42.410Z,21.70
2017-09-04T09:25:09.878Z,21.70
2017-09-04T09:27:37.322Z,21.70
2017-09-04T09:30:04.772Z,21.80
2017-09-04T09:32:32.451Z,21.90
2017-09-04T09:34:59.911Z,22.10
2017-09-04T09:37:27.361Z,22.30
2017-09-04T09:39:55.013Z,22.10
2017-09-04T09:42:22.466Z,21.90
2017-09-04T09:44:49.909Z,22.20
2017-09-04T09:47:17.489Z,22.80
2017-09-04T09:49:45.490Z,23.00
2017-09-04T09:52:12.942Z,23.60
2017-09-04T09:54:40.420Z,23.20
2017-09-04T09:57:07.866Z,23.10
2017-09-04T09:59:35.319Z,23.30
2017-09-04T10:02:02.771Z,24.00
2017-09-04T10:04:30.225Z,24.20
2017-09-04T10:06:57.715Z,24.20
2017-09-04T10:09:25.158Z,24.00
2017-09-04T10:11:52.618Z,24.30
2017-09-04T10:14:20.415Z,23.70
2017-09-04T10:16:47.857Z,23.20
2017-09-04T10:19:15.306Z,23.50
2017-09-04T10:21:42.774Z,24.00
2017-09-04T10:24:10.222Z,23.20
2017-09-04T10:26:37.669Z,23.60
2017-09-04T10:29:05.413Z,24.20
2017-09-04T10:31:32.873Z,24.60
2017-09-04T10:34:00.342Z,24.50
2017-09-04T10:36:28.122Z,24.50
2017-09-04T10:38:55.570Z,24.70
2017-09-04T10:41:23.202Z,24.40
2017-09-04T10:43:50.633Z,24.20
2017-09-04T10:46:18.085Z,24.10
2017-09-04T10:48:45.562Z,24.00
2017-09-04T10:51:13.013Z,23.70
2017-09-04T10:53:40.465Z,24.10
2017-09-04T10:56:07.975Z,24.60
2017-09-04T10:58:35.421Z,24.40
2017-09-04T11:01:02.878Z,24.70
2017-09-04T11:03:30.538Z,24.70
2017-09-04T11:05:57.990Z,24.10
2017-09-04T11:08:25.434Z,23.50
2017-09-04T11:10:53.054Z,24.00
2017-09-04T11:13:20.503Z,25.30
2017-09-04T11:15:47.945Z,25.90
2017-09-04T11:18:15.670Z,24.90
2017-09-04T11:20:43.117Z,25.30
2017-09-04T11:23:10.565Z,25.30
2017-09-04T11:25:38.053Z,25.80
2017-09-04T11:28:05.499Z,24.70
2017-09-04T11:30:32.945Z,24.40
2017-09-04T11:33:00.400Z,25.50
2017-09-04T11:35:27.846Z,25.10
2017-09-04T11:37:55.321Z,24.00
2017-09-04T11:40:22.775Z,23.60
2017-09-04T11:42:50.218Z,24.80
2017-09-04T11:45:17.796Z,24.90
2017-09-04T11:47:45.247Z,24.00
2017-09-04T11:50:12.722Z,26.20
2017-09-04T11:52:40.173Z,26.50
2017-09-04T11:55:07.645Z,23.90
2017-09-04T11:57:35.094Z,26.60
2017-09-04T12:00:02.541Z,27.20
2017-09-04T12:02:30.001Z,28.10
2017-09-04T12:04:57.445Z,27.10
2017-09-04T12:07:24.902Z,24.80
2017-09-04T12:09:52.394Z,28.40
2017-09-04T12:12:19.842Z,29.90
2017-09-04T12:14:47.298Z,29.90
2017-09-04T12:17:14.749Z,31.10
2017-09-04T12:19:42.197Z,31.50
2017-09-04T12:22:09.862Z,31.90
2017-09-04T12:24:37.315Z,27.70
2017-09-04T12:27:04.762Z,30.10
2017-09-04T12:29:32.229Z,29.40
2017-09-04T12:31:59.677Z,28.90
2017-09-04T12:34:27.127Z,28.00
2017-09-04T12:36:54.793Z,29.80
2017-09-04T12:39:22.234Z,31.80
2017-09-04T12:41:49.678Z,32.70
2017-09-04T12:44:17.153Z,32.80
2017-09-04T12:46:44.606Z,32.00
2017-09-04T12:49:12.056Z,32.50
2017-09-04T12:51:39.887Z,32.70
2017-09-04T12:54:07.339Z,29.70
2017-09-04T12:56:34.795Z,31.60
2017-09-04T12:59:02.270Z,31.90
2017-09-04T13:01:29.717Z,32.60
2017-09-04T13:03:57.176Z,32.50
2017-09-04T13:06:24.899Z,32.40
2017-09-04T13:08:52.349Z,31.60
2017-09-04T13:11:25.442Z,33.00
2017-09-04T13:13:58.483Z,34.10
2017-09-04T14:45:52.511Z,34.50
2017-09-04T14:48:20.528Z,33.50
2017-09-04T14:50:47.983Z,33.40
2017-09-04T14:53:15.470Z,32.60
2017-09-04T14:55:42.913Z,32.70
2017-09-04T14:58:10.362Z,32.00
2017-09-04T15:00:37.811Z,30.40
2017-09-04T15:03:05.262Z,31.50
2017-09-04T15:05:32.897Z,33.00
2017-09-04T15:08:00.342Z,33.70
2017-09-04T15:10:27.798Z,33.50
2017-09-04T15:12:55.534Z,33.80
2017-09-04T15:15:22.978Z,33.10
2017-09-04T15:17:50.424Z,33.00
2017-09-04T15:20:18.158Z,31.80
2017-09-04T15:22:45.603Z,30.60
2017-09-04T15:25:13.050Z,29.80
2017-09-04T15:27:40.538Z,29.80
2017-09-04T15:30:07.978Z,28.30
2017-09-04T15:32:35.427Z,26.90
2017-09-04T15:35:02.913Z,26.00
2017-09-04T15:37:30.354Z,25.50
2017-09-04T15:39:57.805Z,25.10
2017-09-04T15:42:25.566Z,24.80
2017-09-04T15:44:53.015Z,24.30
2017-09-04T15:47:20.462Z,24.50
2017-09-04T15:49:48.083Z,24.30
2017-09-04T15:52:15.538Z,24.10
2017-09-04T15:54:42.986Z,24.00
2017-09-04T15:57:10.431Z,23.70
2017-09-04T15:59:37.868Z,23.70
2017-09-04T16:02:05.645Z,23.60
2017-09-04T16:04:33.092Z,23.40
2017-09-04T16:07:02.098Z,23.30
2017-09-04T16:09:29.873Z,23.30
2017-09-04T17:08:49.166Z,21.50
2017-09-04T17:11:16.618Z,21.60
2017-09-04T17:13:44.070Z,21.40
2017-09-04T17:16:13.507Z,21.40
2017-09-04T17:18:41.564Z,21.20
2017-09-04T17:56:29.550Z,20.10
2017-09-04T17:58:57.006Z,20.10
2017-09-04T18:01:24.474Z,20.00
2017-09-04T18:03:51.975Z,19.90
2017-09-04T18:06:19.430Z,19.90
2017-09-04T18:08:46.891Z,19.90
2017-09-04T18:11:14.354Z,19.90
2017-09-04T18:13:41.844Z,19.80
2017-09-04T18:16:09.298Z,19.70
2017-09-04T18:18:36.764Z,19.70
2017-09-04T18:21:04.518Z,19.70
2017-09-04T18:23:31.979Z,19.60
2017-09-04T18:25:59.458Z,19.50
2017-09-04T18:28:26.958Z,19.40
2017-09-04T18:30:54.548Z,19.30
2017-09-04T18:33:22.018Z,19.30
2017-09-04T18:35:49.469Z,19.40
2017-09-04T18:38:16.931Z,19.30
2017-09-04T18:40:44.398Z,19.20
2017-09-04T18:43:12.077Z,19.10
2017-09-04T18:45:39.544Z,19.10
2017-09-04T18:48:06.990Z,19.00
2017-09-04T18:50:34.486Z,18.90
2017-09-04T18:53:01.941Z,18.90
2017-09-04T18:55:29.475Z,18.90
2017-09-04T18:57:57.158Z,18.70
2017-09-04T19:00:24.672Z,18.60
2017-09-04T19:02:52.133Z,18.60
2017-09-04T19:05:19.929Z,18.60
2017-09-04T19:07:47.400Z,18.40
2017-09-04T19:10:14.864Z,18.40
2017-09-04T19:12:42.560Z,18.40
2017-09-04T19:15:10.019Z,18.50
2017-09-04T19:17:37.471Z,18.40
2017-09-04T19:20:04.979Z,18.40
2017-09-04T19:22:32.433Z,18.40
2017-09-04T19:24:59.893Z,18.40
2017-09-04T19:27:27.386Z,18.40
2017-09-04T19:29:54.847Z,18.30
2017-09-04T19:32:22.349Z,18.30
2017-09-04T19:34:49.802Z,18.20
2017-09-04T19:37:17.259Z,18.20
2017-09-04T19:39:44.749Z,18.10
2017-09-04T19:42:12.205Z,18.10
2017-09-04T19:44:39.662Z,18.00
2017-09-04T19:47:07.149Z,17.90
2017-09-04T19:49:34.593Z,17.90
2017-09-04T19:52:02.055Z,17.90
2017-09-04T19:54:29.564Z,17.90
2017-09-04T19:56:57.021Z,17.80
2017-09-04T19:59:24.484Z,17.60
2017-09-04T20:01:51.963Z,17.50
2017-09-04T20:04:19.409Z,17.50
2017-09-04T20:06:46.858Z,17.40
2017-09-04T20:09:14.346Z,17.40
2017-09-04T20:11:41.799Z,17.40
2017-09-04T20:14:09.245Z,17.40
2017-09-04T20:16:37.056Z,17.30
2017-09-04T20:19:04.517Z,17.20
2017-09-04T20:21:31.971Z,17.20
2017-09-04T20:23:59.447Z,17.20
2017-09-04T20:26:26.894Z,17.20
2017-09-04T20:28:54.529Z,17.20
2017-09-04T20:31:21.999Z,17.10
2017-09-04T20:33:49.458Z,17.00
2017-09-04T20:36:16.947Z,17.00
2017-09-04T20:38:44.754Z,16.90
2017-09-04T20:41:12.210Z,16.70
2017-09-04T20:43:39.662Z,16.60
2017-09-04T20:46:07.153Z,16.70
2017-09-04T20:48:34.607Z,16.70
2017-09-04T20:51:02.067Z,16.70
2017-09-04T20:53:29.554Z,16.70
2017-09-04T20:55:57.013Z,16.70
2017-09-04T20:58:24.486Z,16.60
2017-09-04T21:00:52.169Z,16.50
2017-09-04T21:03:19.643Z,16.50
2017-09-04T21:05:47.101Z,16.50
2017-09-04T21:08:14.936Z,16.50
2017-09-04T21:10:42.390Z,16.50
2017-09-04T21:13:09.845Z,16.50
2017-09-04T21:15:37.602Z,16.40
2017-09-04T21:18:05.067Z,16.40
2017-09-04T21:20:32.521Z,16.40
2017-09-04T21:23:00.010Z,16.30
2017-09-04T21:25:27.463Z,16.30
2017-09-04T21:27:54.912Z,16.30
2017-09-04T21:30:22.386Z,16.20
2017-09-04T21:32:49.838Z,16.10
2017-09-04T21:35:17.291Z,16.10
2017-09-04T21:37:44.762Z,16.10
2017-09-04T21:40:12.220Z,16.10
2017-09-04T21:42:39.701Z,16.10
2017-09-04T21:45:07.158Z,16.10
2017-09-04T21:47:34.614Z,16.10
2017-09-04T21:50:02.286Z,16.00
2017-09-04T21:52:29.737Z,16.10
2017-09-04T21:54:57.189Z,16.10
2017-09-04T21:57:24.641Z,16.00
2017-09-04T21:59:52.108Z,16.00
2017-09-04T22:02:19.572Z,16.10
2017-09-04T22:04:47.029Z,16.10
2017-09-04T22:07:14.481Z,16.10
2017-09-04T22:09:41.940Z,16.00
2017-09-04T22:12:09.387Z,15.80
2017-09-04T22:14:37.067Z,15.70
2017-09-04T22:17:04.533Z,15.60
2017-09-04T22:19:31.974Z,15.50
2017-09-04T22:21:59.629Z,15.40
2017-09-04T22:24:27.087Z,15.40
2017-09-04T22:26:54.534Z,15.30
2017-09-04T22:29:22.033Z,15.40
2017-09-04T22:31:49.458Z,15.30
2017-09-04T22:34:16.934Z,15.20
2017-09-04T22:36:44.648Z,15.30
2017-09-04T22:39:12.114Z,15.30
2017-09-04T22:41:39.561Z,15.30
2017-09-04T22:44:07.045Z,15.10
2017-09-04T22:46:34.494Z,15.10
2017-09-04T22:49:01.946Z,14.70
2017-09-04T22:51:29.445Z,14.70
2017-09-04T22:53:57.086Z,14.90
2017-09-04T22:56:24.540Z,15.10
2017-09-04T22:58:53.617Z,15.20
2017-09-04T23:01:21.069Z,15.30
2017-09-04T23:03:48.525Z,15.40
2017-09-04T23:06:16.180Z,14.90
2017-09-04T23:08:43.629Z,14.60
2017-09-04T23:11:11.081Z,14.50
2017-09-04T23:13:38.566Z,14.40
2017-09-04T23:16:06.028Z,14.50
2017-09-04T23:18:33.481Z,14.90
2017-09-04T23:21:00.953Z,14.90
2017-09-04T23:23:28.409Z,14.90
2017-09-04T23:25:55.867Z,15.10
2017-09-04T23:28:23.317Z,15.30
2017-09-04T23:30:50.777Z,15.40
2017-09-04T23:33:18.262Z,15.40
2017-09-04T23:35:45.714Z,15.40
2017-09-04T23:38:13.166Z,15.00
2017-09-04T23:40:40.649Z,14.40
2017-09-04T23:43:08.100Z,14.30
2017-09-04T23:45:35.545Z,14.60
2017-09-04T23:48:03.130Z,14.70
2017-09-04T23:50:30.586Z,14.90
2017-09-04T23:52:58.038Z,15.10
2017-09-04T23:55:25.765Z,15.10
2017-09-04T23:57:53.230Z,15.00
